Time;durP1;ratioP1;P1;durP2;ratioP2;P2;SDS_P1;SDS_P2;PMS_P1;PMS_P2;Temp;Humidity;BMP_temperature;BMP_pressure;BME280_temperature;BME280_humidity;BME280_pressure;Samples;Min_cycle;Max_cycle;Signal;HPM_P1;HPM_P2
2021/09/30 00:01:14;;;;;;;23.63;11.20;;;;;;;10.88;61.19;101874.70;126313;1099;104191;-77
2021/09/30 00:03:45;;;;;;;26.30;11.93;;;;;;;10.86;61.44;101882.50;126333;1099;104143;-78
2021/09/30 00:06:15;;;;;;;26.03;11.40;;;;;;;10.84;61.32;101875.34;126270;1099;104137;-78
2021/09/30 00:08:46;;;;;;;24.23;11.37;;;;;;;10.81;61.18;101881.31;126323;1099;104162;-78
2021/09/30 00:11:22;;;;;;;22.40;11.00;;;;;;;10.78;61.13;101878.51;126244;1099;104146;-78
2021/09/30 00:13:57;;;;;;;22.87;10.40;;;;;;;10.75;61.52;101876.64;126271;1099;104160;-78
2021/09/30 00:33:02;;;;;;;25.00;10.77;;;;;;;10.66;61.49;101880.43;126098;1099;104338;-77
2021/09/30 00:35:40;;;;;;;23.53;10.67;;;;;;;10.64;61.50;101880.34;126118;1099;104310;-77
2021/09/30 00:46:47;;;;;;;25.83;10.77;;;;;;;10.63;61.70;101873.31;125231;1099;104162;-78
2021/09/30 00:49:33;;;;;;;22.00;10.47;;;;;;;10.61;61.72;101865.34;125257;1099;104367;-78
2021/09/30 00:52:09;;;;;;;21.83;11.13;;;;;;;10.61;61.49;101872.29;125225;1099;104290;-78
2021/09/30 02:18:12;;;;;;;23.30;11.60;;;;;;;9.96;62.87;101884.23;126237;1099;104136;-77
2021/09/30 02:24:28;;;;;;;20.90;11.10;;;;;;;9.67;63.62;101883.34;126327;1099;104194;-77
2021/09/30 02:30:01;;;;;;;21.30;10.37;;;;;;;9.63;63.72;101885.69;125781;1099;104385;-77
2021/09/30 03:00:09;;;;;;;21.87;11.80;;;;;;;9.21;63.95;101911.01;126307;1099;104140;-79
2021/09/30 03:02:49;;;;;;;25.85;12.60;;;;;;;9.20;63.97;101909.22;126332;1099;104370;-78
2021/09/30 03:05:25;;;;;;;23.73;12.07;;;;;;;9.18;64.03;101903.88;126385;1099;104153;-78
2021/09/30 03:07:58;;;;;;;30.63;13.43;;;;;;;9.16;64.71;101902.86;126338;1099;104153;-78
2021/09/30 03:10:30;;;;;;;25.17;11.40;;;;;;;9.13;64.04;101902.66;126321;1099;104166;-78
2021/09/30 03:13:02;;;;;;;21.87;11.00;;;;;;;9.09;64.87;101905.91;126335;1099;104242;-78
2021/09/30 03:15:40;;;;;;;24.50;11.60;;;;;;;9.07;64.33;101908.44;126298;1099;104159;-77
2021/09/30 03:18:28;;;;;;;20.93;11.10;;;;;;;9.07;64.15;101913.67;126309;1099;104149;-79
2021/09/30 03:23:51;;;;;;;22.57;10.87;;;;;;;9.03;65.08;101910.75;126341;1099;104238;-78
2021/09/30 03:26:37;;;;;;;24.57;11.00;;;;;;;9.02;64.40;101914.16;126326;1099;104270;-78
2021/09/30 03:29:11;;;;;;;27.07;12.00;;;;;;;8.98;64.75;101913.08;126257;1099;104197;-78
2021/09/30 03:31:45;;;;;;;20.63;11.33;;;;;;;8.96;65.14;101909.42;126278;1099;104137;-78
2021/09/30 03:34:36;;;;;;;24.70;12.07;;;;;;;8.94;64.65;101916.28;126317;1099;104331;-78
2021/09/30 03:37:07;;;;;;;26.90;11.83;;;;;;;8.92;65.20;101913.57;126309;1099;104367;-78
2021/09/30 03:39:39;;;;;;;23.90;11.03;;;;;;;8.91;64.64;101917.02;126347;1099;104185;-78
2021/09/30 03:42:10;;;;;;;24.30;11.90;;;;;;;8.89;65.07;101922.95;126318;1099;104162;-79
2021/09/30 03:44:43;;;;;;;27.27;12.73;;;;;;;8.87;64.70;101914.99;126365;1099;104566;-79
2021/09/30 03:47:18;;;;;;;28.00;12.97;;;;;;;8.80;64.72;101918.00;126354;1099;104322;-79
2021/09/30 03:50:14;;;;;;;26.73;13.27;;;;;;;8.75;65.13;101919.42;126219;1099;104149;-78
2021/09/30 03:52:58;;;;;;;34.83;14.33;;;;;;;8.77;65.61;101925.66;126322;1099;104179;-78
2021/09/30 04:00:57;;;;;;;29.77;13.83;;;;;;;8.69;65.33;101919.91;126207;1099;104620;-78
2021/09/30 04:03:27;;;;;;;30.03;13.63;;;;;;;8.66;65.59;101919.71;126341;1099;104153;-78
2021/09/30 04:05:58;;;;;;;31.10;13.60;;;;;;;8.63;65.85;101920.44;126323;1099;104175;-79
2021/09/30 04:08:29;;;;;;;31.13;14.93;;;;;;;8.65;65.58;101925.77;126320;1099;104201;-79
2021/09/30 04:11:00;;;;;;;32.83;16.00;;;;;;;8.64;65.59;101927.45;126321;1097;104245;-78
2021/09/30 04:13:31;;;;;;;40.27;16.23;;;;;;;8.64;66.03;101930.08;126331;1098;104143;-78
2021/09/30 04:16:02;;;;;;;30.73;14.93;;;;;;;8.64;66.05;101937.92;126292;1099;104434;-78
2021/09/30 04:18:34;;;;;;;37.00;15.57;;;;;;;8.65;66.05;101938.86;126355;1099;104249;-79
2021/09/30 04:21:05;;;;;;;38.33;15.17;;;;;;;8.66;66.09;101942.37;126257;1098;104249;-78
2021/09/30 04:23:35;;;;;;;38.63;15.83;;;;;;;8.66;66.17;101935.41;126351;1099;104306;-78
2021/09/30 04:26:06;;;;;;;32.73;13.97;;;;;;;8.69;65.55;101939.95;126261;1099;104211;-78
2021/09/30 04:28:38;;;;;;;34.25;14.80;;;;;;;8.72;65.87;101940.16;126319;1099;104143;-78
2021/09/30 04:31:09;;;;;;;28.07;13.50;;;;;;;8.73;65.82;101937.64;126244;1099;104146;-77
2021/09/30 04:33:49;;;;;;;37.63;15.00;;;;;;;8.73;65.58;101940.26;126316;1099;104152;-79
2021/09/30 04:36:21;;;;;;;30.27;14.20;;;;;;;8.76;66.34;101937.84;126332;1099;104143;-78
2021/09/30 04:38:52;;;;;;;32.90;14.43;;;;;;;8.77;65.90;101943.98;126315;1099;104316;-77
2021/09/30 04:41:24;;;;;;;33.67;15.67;;;;;;;8.78;65.75;101944.08;126193;1099;104316;-80
2021/09/30 04:43:55;;;;;;;32.60;14.90;;;;;;;8.81;65.95;101938.15;126318;1099;104207;-78
2021/09/30 04:46:26;;;;;;;29.73;13.97;;;;;;;8.86;65.83;101941.97;126250;1099;104174;-78
2021/09/30 04:49:14;;;;;;;29.27;14.70;;;;;;;8.91;66.54;101943.20;126354;1099;104222;-79
2021/09/30 04:51:45;;;;;;;30.17;14.73;;;;;;;8.95;66.47;101945.19;126268;1099;104178;-79
2021/09/30 04:54:15;;;;;;;34.20;15.37;;;;;;;8.97;66.11;101943.56;126285;1097;104169;-79
2021/09/30 04:56:47;;;;;;;34.07;15.10;;;;;;;9.00;66.57;101948.10;126259;1096;104168;-79
2021/09/30 04:59:27;;;;;;;37.23;15.70;;;;;;;9.03;65.97;101947.41;126302;1099;104261;-79
2021/09/30 05:02:17;;;;;;;29.65;14.95;;;;;;;8.99;65.92;101955.06;126291;1098;104130;-78
2021/09/30 05:04:47;;;;;;;31.60;15.80;;;;;;;8.98;66.16;101949.73;126164;1099;104379;-79
2021/09/30 05:07:18;;;;;;;29.57;16.27;;;;;;;8.92;66.39;101951.94;126139;1098;104166;-78
2021/09/30 05:09:52;;;;;;;31.93;16.07;;;;;;;8.86;66.87;101955.05;126110;1099;104296;-78
2021/09/30 05:12:24;;;;;;;30.60;16.27;;;;;;;8.79;66.01;101953.75;126196;1099;104194;-79
2021/09/30 05:14:55;;;;;;;32.73;16.27;;;;;;;8.75;66.71;101959.58;126262;1099;104149;-77
2021/09/30 05:17:26;;;;;;;31.53;15.07;;;;;;;8.72;66.37;101954.14;126199;1097;104185;-77
2021/09/30 05:19:59;;;;;;;34.03;16.70;;;;;;;8.72;66.15;101951.52;126164;1097;104248;-78
2021/09/30 05:22:31;;;;;;;29.07;16.03;;;;;;;8.75;66.91;101950.83;126221;1099;104342;-78
2021/09/30 05:25:05;;;;;;;31.00;15.75;;;;;;;8.73;66.98;101958.58;126092;1099;104444;-78
2021/09/30 05:27:36;;;;;;;29.70;14.87;;;;;;;8.75;66.95;101961.30;125319;1099;104163;-77
2021/09/30 05:30:11;;;;;;;30.17;14.93;;;;;;;8.77;67.15;101963.23;125136;1099;104281;-79
2021/09/30 05:32:42;;;;;;;34.53;14.73;;;;;;;8.82;66.88;101963.53;125285;1099;104347;-80
2021/09/30 05:35:19;;;;;;;28.60;14.20;;;;;;;8.88;66.91;101960.39;125821;1099;104296;-76
2021/09/30 05:37:55;;;;;;;33.27;14.97;;;;;;;8.92;66.86;101960.69;125901;1099;104184;-77
2021/09/30 05:40:29;;;;;;;34.43;15.10;;;;;;;8.99;66.54;101968.16;125256;1099;104150;-76
2021/09/30 05:43:03;;;;;;;31.67;15.00;;;;;;;9.09;66.53;101974.00;125096;1099;104275;-77
2021/09/30 05:45:41;;;;;;;33.03;15.97;;;;;;;9.14;66.60;101965.61;125259;1099;104153;-78
2021/09/30 05:48:13;;;;;;;27.70;14.07;;;;;;;9.20;66.53;101970.35;126008;1099;104236;-78
2021/09/30 05:50:43;;;;;;;27.27;12.97;;;;;;;9.31;66.49;101966.70;126146;1099;104191;-77
2021/09/30 05:53:34;;;;;;;28.40;13.83;;;;;;;9.44;67.26;101965.80;126054;1099;104134;-77
2021/09/30 05:56:23;;;;;;;27.17;13.27;;;;;;;9.55;66.37;101974.31;126163;1099;104295;-77
2021/09/30 05:58:57;;;;;;;26.00;12.37;;;;;;;9.61;66.75;101969.45;125998;1099;104262;-76
2021/09/30 06:01:54;;;;;;;30.47;12.93;;;;;;;9.66;67.12;101970.67;126074;1098;104277;-76
2021/09/30 06:12:50;;;;;;;26.90;12.37;;;;;;;9.94;66.58;101976.72;126131;1099;104223;-77
2021/09/30 06:15:30;;;;;;;27.47;12.37;;;;;;;10.01;66.69;101981.54;126221;1099;104165;-77
2021/09/30 06:18:07;;;;;;;27.00;11.93;;;;;;;10.12;66.41;101976.95;126184;1099;104142;-76
2021/09/30 06:20:39;;;;;;;;;;;;;;;10.19;66.65;101976.50;125953;1096;104223;-76
2021/09/30 06:23:11;;;;;;;25.80;11.73;;;;;;;10.28;66.70;101982.30;125974;1099;104239;-76
2021/09/30 06:25:44;;;;;;;23.20;11.80;;;;;;;10.30;65.94;101983.32;126004;1099;104309;-77
2021/09/30 06:28:15;;;;;;;22.63;10.40;;;;;;;10.32;66.29;101975.55;126150;1099;104185;-77
2021/09/30 06:30:51;;;;;;;24.23;11.37;;;;;;;10.39;65.96;101975.11;126167;1099;104153;-76
2021/09/30 06:33:44;;;;;;;22.67;11.07;;;;;;;10.49;66.50;101979.22;125979;1099;104229;-76
2021/09/30 06:36:39;;;;;;;24.47;9.83;;;;;;;10.55;66.19;101975.23;126053;1097;104195;-76
2021/09/30 06:39:10;;;;;;;22.50;10.30;;;;;;;10.57;65.86;101985.81;126089;1099;104322;-77
2021/09/30 06:41:47;;;;;;;22.73;10.53;;;;;;;10.55;65.79;101979.55;126160;1099;104268;-76
2021/09/30 06:44:40;;;;;;;21.87;10.40;;;;;;;10.57;66.03;101985.81;126061;1099;104268;-75
2021/09/30 06:47:29;;;;;;;23.83;10.30;;;;;;;10.63;66.02;101987.88;126245;1099;104213;-76
2021/09/30 06:50:12;;;;;;;21.43;11.03;;;;;;;10.71;65.95;101982.28;126181;1099;104288;-76
2021/09/30 06:53:01;;;;;;;;;;;;;;;10.79;65.21;101983.63;126104;1097;104387;-77
2021/09/30 06:55:47;;;;;;;23.83;10.80;;;;;;;10.91;65.91;101985.18;125897;1099;104162;-75
2021/09/30 06:58:42;;;;;;;25.10;11.60;;;;;;;11.05;65.50;101991.23;126067;1098;104272;-75
2021/09/30 07:01:27;;;;;;;25.17;11.67;;;;;;;11.15;65.29;101991.81;126006;1099;104152;-77
2021/09/30 07:04:17;;;;;;;23.70;10.40;;;;;;;11.19;64.70;101989.37;126111;1099;104271;-76
2021/09/30 07:07:05;;;;;;;23.23;10.67;;;;;;;11.27;65.52;101991.62;125919;1098;104172;-76
2021/09/30 07:09:36;;;;;;;27.20;11.03;;;;;;;11.31;65.06;101990.06;125922;1099;104329;-75
2021/09/30 07:12:07;;;;;;;27.97;11.07;;;;;;;11.43;65.07;101993.38;126094;1099;104162;-75
2021/09/30 07:14:39;;;;;;;22.13;10.50;;;;;;;11.54;65.17;101987.83;126057;1098;104258;-75
2021/09/30 07:17:10;;;;;;;24.60;11.60;;;;;;;11.67;65.12;101992.93;126021;1099;104139;-74
2021/09/30 07:19:43;;;;;;;25.00;10.63;;;;;;;11.83;65.23;101987.70;126035;1098;104290;-75
2021/09/30 07:22:15;;;;;;;22.17;10.30;;;;;;;11.90;64.66;101996.82;126037;1099;104147;-75
2021/09/30 07:24:46;;;;;;;19.10;9.60;;;;;;;11.97;64.54;101992.85;126087;1099;104163;-76
2021/09/30 07:27:18;;;;;;;22.57;11.23;;;;;;;12.06;64.67;101985.45;126285;1099;104178;-77
2021/09/30 07:29:51;;;;;;;24.03;10.40;;;;;;;12.15;64.36;101991.17;126181;1099;104290;-78
2021/09/30 07:32:27;;;;;;;23.37;11.03;;;;;;;12.26;64.54;101980.32;126085;1099;104354;-76
2021/09/30 07:35:00;;;;;;;26.43;11.47;;;;;;;12.40;64.50;101977.59;126138;1099;104204;-76
2021/09/30 07:37:31;;;;;;;23.80;10.03;;;;;;;12.48;63.70;101979.70;126274;1098;104393;-76
2021/09/30 07:40:03;;;;;;;26.53;10.83;;;;;;;12.47;63.73;101976.17;126030;1098;104142;-76
2021/09/30 07:42:38;;;;;;;25.67;10.73;;;;;;;12.57;64.21;101969.64;126186;1099;104149;-76
2021/09/30 07:45:10;;;;;;;22.40;10.13;;;;;;;12.67;63.64;101973.64;126204;1099;104236;-77
2021/09/30 07:47:43;;;;;;;22.00;10.88;;;;;;;12.73;63.42;101973.95;126328;1099;104239;-77
2021/09/30 07:50:14;;;;;;;23.83;10.87;;;;;;;12.83;63.22;101973.59;126235;1099;104166;-76
2021/09/30 07:52:46;;;;;;;22.13;9.70;;;;;;;12.89;61.94;101971.27;126309;1099;104150;-76
2021/09/30 07:55:17;;;;;;;25.43;10.70;;;;;;;12.98;62.85;101970.84;126173;1099;104153;-76
2021/09/30 07:57:49;;;;;;;20.20;10.33;;;;;;;13.14;63.14;101972.48;126167;1099;104213;-76
2021/09/30 08:00:21;;;;;;;24.17;10.27;;;;;;;13.25;62.65;101971.27;126284;1098;104198;-76
2021/09/30 08:02:52;;;;;;;23.37;10.50;;;;;;;13.34;62.67;101968.20;126169;1098;104245;-76
2021/09/30 08:05:23;;;;;;;24.77;10.50;;;;;;;13.44;62.43;101962.52;126155;1099;104139;-76
2021/09/30 08:07:55;;;;;;;20.80;9.50;;;;;;;13.52;60.67;101964.63;126094;1099;104200;-76
2021/09/30 08:10:27;;;;;;;21.80;9.50;;;;;;;13.53;61.70;101962.06;125909;1099;104242;-76
2021/09/30 08:12:59;;;;;;;21.17;9.90;;;;;;;13.68;61.09;101963.61;126108;1099;104201;-76
2021/09/30 08:15:34;;;;;;;19.77;9.87;;;;;;;13.83;61.43;101959.03;126241;1099;104165;-76
2021/09/30 08:18:06;;;;;;;21.60;9.07;;;;;;;13.95;62.24;101956.95;126299;1099;104160;-75
2021/09/30 08:20:42;;;;;;;21.63;10.77;;;;;;;14.05;62.07;101957.38;126273;1099;104605;-76
2021/09/30 08:23:15;;;;;;;22.50;9.13;;;;;;;14.13;61.40;101959.53;126210;1099;104194;-74
2021/09/30 08:25:46;;;;;;;24.45;9.10;;;;;;;14.21;60.75;101957.23;126262;1099;104165;-74
2021/09/30 08:28:20;;;;;;;23.53;9.23;;;;;;;14.30;60.67;101954.07;126166;1099;104166;-75
2021/09/30 08:30:51;;;;;;;;;;;;;;;14.44;59.43;101939.72;126235;1098;104146;-75
2021/09/30 08:33:24;;;;;;;18.40;8.40;;;;;;;14.58;59.43;101942.95;126200;1098;104249;-75
2021/09/30 08:35:55;;;;;;;18.77;8.75;;;;;;;14.63;59.38;101952.03;126139;1099;104334;-75
2021/09/30 08:38:27;;;;;;;17.60;8.20;;;;;;;14.74;60.16;101947.20;126235;1099;104181;-77
2021/09/30 08:40:58;;;;;;;20.03;8.67;;;;;;;14.83;60.15;101941.38;126268;1099;104205;-75
2021/09/30 08:43:30;;;;;;;16.83;7.63;;;;;;;14.92;58.34;101941.75;126255;1099;104198;-76
2021/09/30 08:46:05;;;;;;;15.47;7.77;;;;;;;14.89;58.53;101946.91;126004;1099;104227;-75
2021/09/30 08:48:38;;;;;;;17.90;8.20;;;;;;;15.01;59.61;101935.95;126208;1099;104200;-76
2021/09/30 08:51:11;;;;;;;13.67;7.37;;;;;;;15.19;58.89;101938.41;126296;1099;104168;-76
2021/09/30 08:53:44;;;;;;;23.30;7.87;;;;;;;15.28;58.03;101923.80;126240;1098;104277;-75
2021/09/30 08:56:18;;;;;;;18.77;8.13;;;;;;;15.30;57.18;101929.15;126211;1097;104185;-75
2021/09/30 08:58:51;;;;;;;15.10;8.07;;;;;;;15.37;57.72;101928.56;126188;1099;104136;-75
2021/09/30 09:01:22;;;;;;;17.37;7.50;;;;;;;15.19;56.38;101930.48;125990;1099;104351;-77
2021/09/30 09:03:56;;;;;;;13.60;7.33;;;;;;;15.07;57.19;101926.52;125977;1096;104179;-77
2021/09/30 09:06:32;;;;;;;;;;;;;;;14.91;54.87;101929.36;125921;1099;104195;-76
2021/09/30 09:09:27;;;;;;;18.07;7.22;;;;;;;14.88;54.22;101937.16;126006;1099;104288;-76
2021/09/30 09:12:06;;;;;;;14.40;6.57;;;;;;;14.84;54.86;101928.22;126168;1099;104184;-76
2021/09/30 09:14:40;;;;;;;14.97;6.67;;;;;;;14.97;55.26;101929.61;126189;1099;104139;-76
2021/09/30 09:17:13;;;;;;;14.33;6.37;;;;;;;15.17;55.98;101926.88;126157;1099;104309;-76
2021/09/30 09:19:48;;;;;;;15.72;6.58;;;;;;;15.24;55.48;101924.55;126314;1098;104171;-77
2021/09/30 09:22:23;;;;;;;14.50;6.40;;;;;;;15.22;55.52;101922.66;126268;1099;104755;-76
2021/09/30 09:25:05;;;;;;;19.80;6.90;;;;;;;15.22;54.77;101926.23;126181;1098;104191;-77
2021/09/30 09:27:52;;;;;;;13.73;5.93;;;;;;;15.10;54.80;101923.99;126048;1099;104252;-78
2021/09/30 09:30:39;;;;;;;11.60;6.33;;;;;;;15.18;53.53;101923.41;126141;1099;104149;-78
2021/09/30 09:33:16;;;;;;;15.33;6.07;;;;;;;15.31;53.31;101924.78;126131;1099;104216;-77
2021/09/30 09:36:05;;;;;;;12.63;5.73;;;;;;;15.49;52.62;101921.92;125965;1099;104313;-78
2021/09/30 09:38:51;;;;;;;14.55;6.05;;;;;;;15.51;51.01;101914.98;125922;1099;104235;-76
2021/09/30 09:41:30;;;;;;;11.93;5.47;;;;;;;15.58;50.62;101928.49;126243;1099;104201;-75
2021/09/30 09:44:04;;;;;;;11.50;5.90;;;;;;;15.54;51.86;101923.03;126109;1099;104170;-76
2021/09/30 09:46:37;;;;;;;15.83;6.57;;;;;;;15.53;51.97;101921.22;126185;1099;104153;-76
2021/09/30 09:49:15;;;;;;;15.37;6.07;;;;;;;15.71;52.55;101927.20;126114;1099;104465;-76
2021/09/30 09:51:50;;;;;;;13.97;6.33;;;;;;;15.80;52.10;101914.34;126159;1099;104166;-76
2021/09/30 09:54:26;;;;;;;13.07;5.83;;;;;;;15.89;51.92;101918.17;126190;1099;104152;-76
2021/09/30 09:57:11;;;;;;;13.60;6.23;;;;;;;15.92;52.66;101926.22;126120;1099;104214;-76
2021/09/30 09:59:45;;;;;;;11.47;6.00;;;;;;;15.85;51.52;101916.24;126207;1097;112672;-76
2021/09/30 10:02:34;;;;;;;11.97;5.80;;;;;;;16.00;51.12;101922.09;126144;1099;104149;-77
2021/09/30 10:05:08;;;;;;;12.07;6.00;;;;;;;15.97;49.60;101924.63;125944;1099;104252;-78
2021/09/30 10:07:40;;;;;;;11.73;5.80;;;;;;;15.88;51.20;101919.00;125801;1099;104205;-75
2021/09/30 10:10:13;;;;;;;15.50;6.27;;;;;;;15.73;51.12;101914.92;125765;1098;104165;-75
2021/09/30 10:12:47;;;;;;;14.97;6.97;;;;;;;15.77;51.47;101921.28;125716;1098;104268;-76
2021/09/30 10:15:21;;;;;;;13.27;6.13;;;;;;;15.83;51.44;101916.19;126078;1099;104210;-75
2021/09/30 10:17:57;;;;;;;14.87;6.78;;;;;;;15.80;51.03;101932.88;126003;1099;104195;-74
2021/09/30 10:20:30;;;;;;;18.60;6.67;;;;;;;15.62;50.66;101927.74;125940;1099;107304;-74
2021/09/30 10:23:05;;;;;;;12.87;6.10;;;;;;;15.57;49.14;101931.97;126033;1099;104188;-77
2021/09/30 10:25:38;;;;;;;15.03;6.07;;;;;;;15.43;49.52;101931.44;126036;1099;104143;-76
2021/09/30 10:28:11;;;;;;;10.95;5.33;;;;;;;15.50;49.72;101931.68;126188;1099;104172;-76
2021/09/30 10:30:44;;;;;;;9.90;5.03;;;;;;;15.74;49.13;101916.73;126112;1099;118996;-76
2021/09/30 10:33:19;;;;;;;11.07;5.17;;;;;;;15.91;48.30;101911.17;126050;1099;104338;-77
2021/09/30 10:35:53;;;;;;;10.90;5.30;;;;;;;16.03;48.73;101908.97;126171;1099;104204;-76
2021/09/30 10:38:26;;;;;;;14.10;5.63;;;;;;;16.28;47.95;101910.77;126116;1098;104239;-79
2021/09/30 10:41:12;;;;;;;10.18;5.42;;;;;;;16.49;48.37;101905.28;126256;1099;104165;-76
2021/09/30 10:43:48;;;;;;;14.00;5.80;;;;;;;16.53;48.94;101906.27;126159;1099;104147;-76
2021/09/30 10:46:45;;;;;;;11.77;5.67;;;;;;;16.51;49.63;101898.27;126141;1099;104146;-79
2021/09/30 10:49:34;;;;;;;11.27;6.67;;;;;;;16.55;49.24;101896.65;125984;1099;104175;-75
2021/09/30 10:52:20;;;;;;;12.90;6.10;;;;;;;16.38;47.84;101901.37;126135;1098;104291;-78
2021/09/30 10:54:54;;;;;;;13.70;6.27;;;;;;;16.31;48.45;101894.05;126084;1098;104175;-75
2021/09/30 10:57:41;;;;;;;16.67;5.73;;;;;;;16.45;48.05;101897.17;126045;1099;104264;-76
2021/09/30 11:00:49;;;;;;;11.90;6.05;;;;;;;16.66;48.29;101894.36;126052;1099;104542;-76
2021/09/30 11:03:24;;;;;;;15.20;6.07;;;;;;;16.70;46.41;101899.81;125620;1099;104319;-77
2021/09/30 11:06:16;;;;;;;14.17;6.57;;;;;;;16.70;47.86;101893.59;126131;1099;104201;-78
2021/09/30 11:08:52;;;;;;;13.00;6.00;;;;;;;16.46;46.91;101891.93;126146;1099;104248;-77
2021/09/30 11:11:27;;;;;;;15.30;6.10;;;;;;;16.58;47.89;101885.23;125761;1099;117826;-79
2021/09/30 11:14:19;;;;;;;12.87;6.17;;;;;;;16.67;46.96;101890.84;125877;1098;104459;-76
2021/09/30 11:16:54;;;;;;;13.77;6.77;;;;;;;16.75;47.03;101881.41;125243;1102;104252;-76
2021/09/30 11:19:38;;;;;;;13.33;5.70;;;;;;;16.79;46.25;101879.75;125861;1099;104360;-77
2021/09/30 11:22:12;;;;;;;14.57;6.33;;;;;;;16.81;46.72;101885.98;126021;1099;104206;-77
2021/09/30 11:24:58;;;;;;;15.83;7.00;;;;;;;16.65;46.01;101880.19;125960;1099;104241;-78
2021/09/30 11:27:33;;;;;;;13.83;6.10;;;;;;;16.59;46.12;101876.44;125324;1099;104338;-76
2021/09/30 11:30:22;;;;;;;15.55;6.22;;;;;;;16.62;47.01;101879.20;125273;1099;104342;-76
2021/09/30 11:33:00;;;;;;;16.93;6.70;;;;;;;16.72;46.70;101870.70;126109;1099;104280;-76
2021/09/30 11:35:32;;;;;;;17.00;7.07;;;;;;;16.76;46.33;101874.34;126138;1099;104194;-76
2021/09/30 11:38:04;;;;;;;14.77;7.47;;;;;;;16.80;46.36;101882.45;125210;1099;104236;-75
2021/09/30 11:40:37;;;;;;;17.47;8.20;;;;;;;16.81;44.79;101876.30;125874;1099;104322;-76
2021/09/30 11:43:14;;;;;;;20.93;8.60;;;;;;;16.82;45.02;101870.13;126083;1099;104195;-76
2021/09/30 11:45:51;;;;;;;16.40;7.97;;;;;;;16.89;44.51;101873.90;126213;1099;104137;-77
2021/09/30 11:48:24;;;;;;;13.90;7.17;;;;;;;16.89;44.05;101877.48;126308;1099;104204;-77
2021/09/30 11:50:57;;;;;;;;;;;;;;;16.76;44.58;101879.65;126180;1099;104198;-76
2021/09/30 11:53:33;;;;;;;17.33;7.30;;;;;;;16.63;45.19;101875.70;126117;1099;104290;-77
2021/09/30 11:56:10;;;;;;;14.53;7.17;;;;;;;16.58;45.58;101872.91;126278;1099;104200;-78
2021/09/30 11:58:42;;;;;;;16.50;7.17;;;;;;;16.66;44.97;101863.45;126194;1099;104717;-78
2021/09/30 12:01:14;;;;;;;13.67;7.43;;;;;;;16.69;44.86;101865.31;126035;1099;104195;-78
2021/09/30 12:03:51;;;;;;;15.48;7.70;;;;;;;16.81;45.27;101867.43;126191;1099;104389;-79
2021/09/30 12:06:40;;;;;;;13.93;7.23;;;;;;;16.91;45.08;101872.22;126228;1099;104139;-78
2021/09/30 12:09:14;;;;;;;19.30;8.20;;;;;;;16.94;44.72;101867.02;126112;1098;104162;-76
2021/09/30 12:11:54;;;;;;;17.13;7.63;;;;;;;16.95;45.42;101866.14;126208;1099;104238;-75
2021/09/30 12:14:34;;;;;;;16.70;7.60;;;;;;;16.97;45.19;101861.81;125243;1099;104316;-77
2021/09/30 12:17:09;;;;;;;14.17;7.97;;;;;;;16.83;44.78;101863.98;125290;1099;104258;-79
2021/09/30 12:19:47;;;;;;;20.30;8.53;;;;;;;16.86;45.34;101860.55;125173;1102;104162;-77
2021/09/30 12:22:23;;;;;;;18.73;8.53;;;;;;;16.88;43.51;101862.41;125344;1099;104168;-79
2021/09/30 12:25:00;;;;;;;16.03;7.47;;;;;;;16.82;44.17;101862.18;126106;1099;104224;-78
2021/09/30 12:27:35;;;;;;;15.87;8.60;;;;;;;16.75;44.44;101857.55;126121;1099;104335;-77
2021/09/30 12:30:11;;;;;;;16.70;8.57;;;;;;;16.70;44.49;101853.83;125960;1099;104876;-76
2021/09/30 12:32:45;;;;;;;18.57;10.50;;;;;;;16.50;43.78;101864.70;125481;1099;104153;-77
2021/09/30 12:35:24;;;;;;;17.33;8.30;;;;;;;16.42;44.83;101857.34;126091;1099;104171;-77
2021/09/30 12:37:59;;;;;;;18.30;9.63;;;;;;;16.21;44.90;101860.17;125887;1099;104293;-77
2021/09/30 12:40:44;;;;;;;20.33;9.23;;;;;;;16.02;44.14;101864.83;126117;1099;104280;-77
2021/09/30 12:43:22;;;;;;;18.87;9.73;;;;;;;15.88;44.42;101863.41;126169;1099;119010;-77
2021/09/30 12:46:05;;;;;;;15.93;8.80;;;;;;;15.81;44.73;101864.95;126033;1099;104226;-76
2021/09/30 12:48:41;;;;;;;15.33;8.43;;;;;;;15.69;44.13;101865.39;126138;1099;103957;-76
2021/09/30 12:51:16;;;;;;;17.23;8.67;;;;;;;15.66;44.29;101857.34;126176;1099;104953;-78
2021/09/30 12:53:50;;;;;;;19.30;9.05;;;;;;;15.67;44.18;101852.94;126217;1099;104143;-77
2021/09/30 12:56:28;;;;;;;17.67;9.07;;;;;;;15.70;44.17;101847.77;126222;1099;104229;-77
2021/09/30 12:59:13;;;;;;;16.77;8.33;;;;;;;15.70;44.06;101851.30;126148;1099;104430;-78
2021/09/30 13:01:44;;;;;;;20.80;8.93;;;;;;;15.70;44.49;101846.00;126264;1099;104251;-75
2021/09/30 13:04:21;;;;;;;17.97;8.70;;;;;;;15.66;44.26;101846.76;126094;1099;104248;-75
2021/09/30 13:07:03;;;;;;;16.87;8.70;;;;;;;15.66;43.92;101836.17;126181;1099;104146;-75
2021/09/30 13:09:38;;;;;;;18.63;8.40;;;;;;;15.69;44.54;101838.94;126339;1099;104143;-76
2021/09/30 13:12:14;;;;;;;18.43;8.20;;;;;;;15.67;44.40;101837.95;126195;1099;104384;-76
2021/09/30 13:14:49;;;;;;;18.20;8.33;;;;;;;15.65;44.95;101831.72;126181;1099;104207;-75
2021/09/30 13:17:22;;;;;;;17.90;8.87;;;;;;;15.62;44.17;101826.31;126256;1099;104335;-77
2021/09/30 13:19:55;;;;;;;15.70;7.83;;;;;;;15.60;43.94;101833.30;126189;1098;104159;-75
2021/09/30 13:22:33;;;;;;;14.53;7.17;;;;;;;15.51;43.50;101835.61;126210;1098;104268;-75
2021/09/30 13:25:08;;;;;;;14.17;7.13;;;;;;;15.38;43.88;101819.29;126249;1099;104143;-74
2021/09/30 13:27:41;;;;;;;15.77;7.83;;;;;;;15.38;43.48;101826.30;126220;1098;104166;-76
2021/09/30 13:30:15;;;;;;;18.97;7.17;;;;;;;15.39;44.07;101823.71;126270;1099;104140;-76
2021/09/30 13:32:49;;;;;;;17.07;7.33;;;;;;;15.42;44.35;101818.53;126260;1099;104172;-77
2021/09/30 13:35:24;;;;;;;13.37;6.53;;;;;;;15.44;44.28;101827.45;126288;1098;104277;-77
2021/09/30 13:38:00;;;;;;;11.83;6.00;;;;;;;15.46;43.82;101817.81;126275;1099;104159;-78
2021/09/30 13:40:46;;;;;;;12.97;6.50;;;;;;;15.45;43.70;101818.65;126227;1099;104242;-79
2021/09/30 13:43:24;;;;;;;15.65;6.50;;;;;;;15.45;44.56;101812.47;126192;1099;104245;-78
2021/09/30 13:45:58;;;;;;;14.93;6.97;;;;;;;15.48;44.24;101815.23;126173;1099;104191;-76
2021/09/30 13:48:29;;;;;;;18.13;7.27;;;;;;;15.51;44.55;101814.45;126211;1098;104240;-77
2021/09/30 13:51:03;;;;;;;17.63;7.60;;;;;;;15.51;44.00;101806.52;126239;1099;104185;-77
2021/09/30 13:53:37;;;;;;;13.03;6.83;;;;;;;15.51;44.22;101812.70;126102;1099;104137;-79
2021/09/30 13:56:11;;;;;;;18.23;7.50;;;;;;;15.50;44.77;101808.23;126219;1099;104290;-80
2021/09/30 13:58:46;;;;;;;15.70;7.33;;;;;;;15.49;44.70;101810.83;126096;1099;104168;-77
2021/09/30 14:01:17;;;;;;;16.17;6.83;;;;;;;15.44;44.56;101813.30;126177;1099;104312;-76
2021/09/30 14:03:50;;;;;;;14.23;6.50;;;;;;;15.39;44.85;101799.91;126119;1099;104136;-76
2021/09/30 14:06:22;;;;;;;17.43;6.93;;;;;;;15.36;44.75;101812.13;126198;1099;104188;-77
2021/09/30 14:08:55;;;;;;;15.40;6.10;;;;;;;15.30;44.87;101804.86;126233;1099;104139;-78
2021/09/30 14:11:33;;;;;;;12.10;6.27;;;;;;;15.24;44.80;101799.37;126068;1098;104217;-77
2021/09/30 14:14:05;;;;;;;11.83;5.50;;;;;;;15.21;44.07;101800.15;126052;1099;104142;-77
2021/09/30 14:16:38;;;;;;;12.37;5.40;;;;;;;15.10;43.73;101794.45;126056;1099;104168;-76
2021/09/30 14:19:10;;;;;;;10.27;5.17;;;;;;;15.10;44.56;101797.09;126187;1099;104178;-76
2021/09/30 14:21:46;;;;;;;15.37;5.97;;;;;;;15.08;44.61;101788.22;126249;1099;104162;-77